Time;durP1;ratioP1;P1;durP2;ratioP2;P2;SDS_P1;SDS_P2;PMS_P1;PMS_P2;Temp;Humidity;BMP_temperature;BMP_pressure;BME280_temperature;BME280_humidity;BME280_pressure;Samples;Min_cycle;Max_cycle;Signal;HPM_P1;HPM_P2
2022/01/07 00:00:39;;;;;;;20.85;18.38;;;;;;;;;;5007043;28;20438;-69
2022/01/07 00:03:11;;;;;;;21.30;18.15;;;;;;;;;;5001483;28;20030;-69
2022/01/07 00:05:37;;;;;;;33.15;23.45;;;;;;;;;;4999497;28;20113;-69
2022/01/07 00:08:03;;;;;;;23.88;20.40;;;;;;;;;;5003344;28;20524;-69
2022/01/07 00:10:28;;;;;;;25.80;19.00;;;;;;;;;;5004337;28;20040;-69
2022/01/07 00:12:54;;;;;;;30.30;22.58;;;;;;;;;;4997896;28;20064;-68
2022/01/07 00:15:20;;;;;;;32.92;22.80;;;;;;;;;;5003869;28;20032;-69
2022/01/07 00:17:46;;;;;;;32.33;19.15;;;;;;;;;;5003878;28;20057;-69
2022/01/07 00:20:13;;;;;;;34.75;22.92;;;;;;;;;;5000973;28;20079;-69
2022/01/07 00:22:41;;;;;;;35.40;22.58;;;;;;;;;;4995104;28;20034;-69
2022/01/07 00:25:09;;;;;;;31.80;21.75;;;;;;;;;;5010805;28;20493;-69
2022/01/07 00:27:35;;;;;;;18.17;16.45;;;;;;;;;;5002796;28;20041;-68
2022/01/07 00:30:00;;;;;;;30.17;22.83;;;;;;;;;;5001808;28;20041;-68
2022/01/07 00:32:26;;;;;;;24.15;19.70;;;;;;;;;;5003703;28;20038;-68
2022/01/07 00:34:52;;;;;;;28.38;21.60;;;;;;;;;;5004723;28;20456;-68
2022/01/07 00:37:17;;;;;;;19.77;17.42;;;;;;;;;;5000221;28;20108;-68
2022/01/07 00:39:45;;;;;;;23.33;20.92;;;;;;;;;;5001905;28;20087;-68
2022/01/07 00:42:11;;;;;;;27.33;20.08;;;;;;;;;;5006322;28;20064;-68
2022/01/07 00:44:37;;;;;;;32.85;22.70;;;;;;;;;;5009301;28;20494;-68
2022/01/07 00:47:03;;;;;;;22.27;19.67;;;;;;;;;;4996038;28;20112;-69
2022/01/07 00:49:29;;;;;;;35.50;23.50;;;;;;;;;;4994370;28;20026;-68
2022/01/07 00:51:56;;;;;;;24.27;20.17;;;;;;;;;;5001262;28;20531;-69
2022/01/07 00:54:22;;;;;;;21.88;19.20;;;;;;;;;;4999918;28;20959;-69
2022/01/07 00:56:48;;;;;;;20.35;18.40;;;;;;;;;;4998895;28;20073;-68
2022/01/07 00:59:13;;;;;;;31.00;21.52;;;;;;;;;;5004325;28;20500;-69
2022/01/07 01:01:39;;;;;;;27.58;21.98;;;;;;;;;;5009407;28;20532;-67
2022/01/07 01:04:05;;;;;;;26.88;21.00;;;;;;;;;;5001900;28;20077;-68
2022/01/07 01:06:30;;;;;;;23.20;20.33;;;;;;;;;;5005343;28;20038;-67
2022/01/07 01:08:56;;;;;;;26.50;20.60;;;;;;;;;;5006069;28;20659;-69
2022/01/07 01:11:22;;;;;;;30.08;22.00;;;;;;;;;;5003595;28;20045;-67
2022/01/07 01:13:47;;;;;;;28.88;21.38;;;;;;;;;;4995659;28;20038;-69
2022/01/07 01:16:13;;;;;;;27.63;20.67;;;;;;;;;;4998459;28;20037;-67
2022/01/07 01:18:39;;;;;;;28.08;21.67;;;;;;;;;;5004750;28;20035;-66
2022/01/07 01:21:04;;;;;;;42.17;21.90;;;;;;;;;;5007701;28;20021;-67
2022/01/07 01:23:30;;;;;;;38.10;20.88;;;;;;;;;;4995970;28;20433;-67
2022/01/07 01:25:56;;;;;;;27.30;20.80;;;;;;;;;;5001007;28;20033;-68
2022/01/07 01:28:21;;;;;;;27.48;20.52;;;;;;;;;;5008786;28;20025;-69
2022/01/07 01:30:47;;;;;;;28.10;20.35;;;;;;;;;;5001763;28;20074;-67
2022/01/07 01:33:12;;;;;;;31.05;20.52;;;;;;;;;;5001142;28;20101;-69
2022/01/07 01:35:39;;;;;;;26.95;20.48;;;;;;;;;;5006003;28;20042;-68
2022/01/07 01:38:05;;;;;;;23.92;19.15;;;;;;;;;;5003871;28;20074;-68
2022/01/07 01:40:31;;;;;;;28.42;20.83;;;;;;;;;;4995396;28;20502;-68
2022/01/07 01:42:57;;;;;;;27.75;22.27;;;;;;;;;;5005535;28;20041;-68
2022/01/07 01:45:24;;;;;;;27.95;19.80;;;;;;;;;;5003811;28;20607;-68
2022/01/07 01:47:51;;;;;;;29.15;21.88;;;;;;;;;;5000954;28;20044;-68
2022/01/07 01:50:17;;;;;;;33.67;25.27;;;;;;;;;;4991637;28;20091;-68
2022/01/07 01:52:45;;;;;;;54.33;25.10;;;;;;;;;;5006314;28;20044;-68
2022/01/07 01:55:12;;;;;;;39.08;25.30;;;;;;;;;;5014178;28;20037;-68
2022/01/07 01:57:37;;;;;;;28.77;20.33;;;;;;;;;;5001571;28;20039;-68
2022/01/07 02:00:05;;;;;;;28.77;20.63;;;;;;;;;;5007815;28;20040;-67
2022/01/07 02:02:38;;;;;;;25.83;19.10;;;;;;;;;;5027489;28;20045;-67
2022/01/07 02:05:05;;;;;;;22.65;20.25;;;;;;;;;;5021272;28;20041;-66
2022/01/07 02:07:35;;;;;;;24.80;19.98;;;;;;;;;;5001888;28;20034;-66
2022/01/07 02:10:03;;;;;;;31.48;20.25;;;;;;;;;;5006081;28;20467;-66
2022/01/07 02:12:28;;;;;;;28.10;21.50;;;;;;;;;;5028040;28;20088;-66
2022/01/07 02:14:56;;;;;;;31.77;20.30;;;;;;;;;;5010875;28;20030;-67
2022/01/07 02:17:23;;;;;;;40.42;19.77;;;;;;;;;;5008732;28;20052;-66
2022/01/07 02:19:49;;;;;;;27.83;19.75;;;;;;;;;;5025836;28;20053;-67
2022/01/07 02:22:19;;;;;;;25.02;19.83;;;;;;;;;;5005557;28;20034;-69
2022/01/07 02:24:46;;;;;;;20.95;18.85;;;;;;;;;;5028644;22;20076;-86
2022/01/07 02:27:13;;;;;;;25.20;19.10;;;;;;;;;;4999525;28;20042;-85
2022/01/07 02:29:39;;;;;;;22.85;18.25;;;;;;;;;;5032195;28;20091;-87
2022/01/07 02:32:05;;;;;;;17.85;15.93;;;;;;;;;;5014987;28;20045;-86
2022/01/07 02:34:32;;;;;;;21.27;18.45;;;;;;;;;;5025437;28;20573;-86
2022/01/07 02:36:57;;;;;;;21.33;18.63;;;;;;;;;;5021272;28;20061;-86
2022/01/07 02:39:23;;;;;;;22.48;18.45;;;;;;;;;;5014909;23;20031;-69
2022/01/07 02:41:48;;;;;;;30.20;20.60;;;;;;;;;;4999732;28;20034;-70
2022/01/07 02:44:14;;;;;;;28.40;19.90;;;;;;;;;;5011561;28;20377;-69
2022/01/07 02:46:41;;;;;;;22.13;18.77;;;;;;;;;;4993796;28;20046;-70
2022/01/07 02:49:14;;;;;;;26.55;18.45;;;;;;;;;;5004784;28;20527;-69
2022/01/07 02:51:41;;;;;;;21.02;18.80;;;;;;;;;;4997828;28;20057;-69
2022/01/07 02:54:07;;;;;;;28.33;20.27;;;;;;;;;;5005780;28;20320;-68
2022/01/07 02:56:34;;;;;;;20.98;17.05;;;;;;;;;;5003480;28;20092;-68
2022/01/07 02:59:00;;;;;;;28.30;20.13;;;;;;;;;;5005091;28;20467;-69
2022/01/07 03:01:26;;;;;;;21.95;18.65;;;;;;;;;;5010926;28;20076;-69
2022/01/07 03:03:52;;;;;;;27.50;18.33;;;;;;;;;;4994603;28;20062;-69
2022/01/07 03:06:18;;;;;;;32.42;20.92;;;;;;;;;;5005657;28;20037;-69
2022/01/07 03:08:48;;;;;;;25.20;18.75;;;;;;;;;;5011332;28;20037;-70
2022/01/07 03:11:14;;;;;;;23.75;19.00;;;;;;;;;;5001662;28;20101;-70
2022/01/07 03:13:40;;;;;;;26.90;19.67;;;;;;;;;;5003978;28;20038;-69
2022/01/07 03:16:05;;;;;;;27.83;18.95;;;;;;;;;;5009576;28;20038;-69
2022/01/07 03:18:31;;;;;;;21.63;18.38;;;;;;;;;;5001464;28;20511;-69
2022/01/07 03:20:58;;;;;;;18.83;16.88;;;;;;;;;;4999651;28;20037;-68
2022/01/07 03:23:24;;;;;;;25.95;18.77;;;;;;;;;;5005258;28;20537;-69
2022/01/07 03:25:50;;;;;;;24.67;20.15;;;;;;;;;;5016990;28;20065;-70
2022/01/07 03:28:16;;;;;;;22.35;17.90;;;;;;;;;;4995666;28;20069;-69
2022/01/07 03:30:42;;;;;;;20.27;18.17;;;;;;;;;;5004221;28;20049;-70
2022/01/07 03:33:07;;;;;;;22.10;19.08;;;;;;;;;;5010572;28;20037;-70
2022/01/07 03:35:33;;;;;;;19.77;17.67;;;;;;;;;;5006944;28;20042;-68
2022/01/07 03:37:59;;;;;;;21.48;18.83;;;;;;;;;;4995235;28;20046;-70
2022/01/07 03:40:25;;;;;;;20.70;17.50;;;;;;;;;;4993438;28;20103;-70
2022/01/07 03:42:51;;;;;;;19.00;17.23;;;;;;;;;;5010411;28;20049;-70
2022/01/07 03:45:19;;;;;;;18.00;16.13;;;;;;;;;;5002066;28;20034;-69
2022/01/07 03:47:45;;;;;;;20.08;17.08;;;;;;;;;;4996113;28;20121;-70
2022/01/07 03:50:13;;;;;;;24.27;18.80;;;;;;;;;;5006599;28;20130;-70
2022/01/07 03:52:39;;;;;;;19.20;17.13;;;;;;;;;;4996430;28;20474;-69
2022/01/07 03:55:07;;;;;;;20.15;18.00;;;;;;;;;;4991910;28;20041;-69
2022/01/07 03:57:33;;;;;;;16.80;15.07;;;;;;;;;;5011352;28;20505;-70
2022/01/07 03:59:58;;;;;;;16.90;13.35;;;;;;;;;;5004776;28;20065;-70
2022/01/07 04:02:24;;;;;;;15.02;13.10;;;;;;;;;;5008145;28;20041;-69
2022/01/07 04:04:50;;;;;;;18.33;16.35;;;;;;;;;;4996199;28;20516;-69
2022/01/07 04:07:15;;;;;;;25.90;16.02;;;;;;;;;;5000721;28;20041;-68
2022/01/07 04:09:41;;;;;;;23.20;18.45;;;;;;;;;;5010104;28;20038;-70
2022/01/07 04:12:08;;;;;;;22.58;17.13;;;;;;;;;;5009701;28;20049;-70
2022/01/07 04:14:33;;;;;;;29.52;19.52;;;;;;;;;;5000497;28;20433;-68
2022/01/07 04:16:59;;;;;;;25.42;17.42;;;;;;;;;;5004831;28;20326;-70
2022/01/07 04:19:25;;;;;;;20.52;18.33;;;;;;;;;;5008857;28;20108;-70
2022/01/07 04:21:51;;;;;;;22.13;17.65;;;;;;;;;;5001015;28;20404;-67
2022/01/07 04:24:18;;;;;;;23.55;18.20;;;;;;;;;;4993446;28;20036;-68
2022/01/07 04:26:43;;;;;;;18.05;16.25;;;;;;;;;;5006690;28;20077;-70
2022/01/07 04:29:09;;;;;;;15.32;13.90;;;;;;;;;;5009538;28;20057;-69
2022/01/07 04:31:35;;;;;;;18.70;16.73;;;;;;;;;;4998169;28;20092;-69
2022/01/07 04:34:01;;;;;;;25.02;15.00;;;;;;;;;;5006747;28;20556;-69
2022/01/07 04:36:26;;;;;;;23.27;17.45;;;;;;;;;;5003771;28;20492;-70
2022/01/07 04:38:52;;;;;;;22.15;16.33;;;;;;;;;;5001048;28;20040;-68
2022/01/07 04:41:18;;;;;;;17.65;15.88;;;;;;;;;;5001146;28;20039;-68
2022/01/07 04:43:44;;;;;;;18.17;16.00;;;;;;;;;;5004804;28;20030;-68
2022/01/07 04:46:09;;;;;;;23.27;17.77;;;;;;;;;;5003049;28;20508;-68
2022/01/07 04:48:35;;;;;;;17.67;15.82;;;;;;;;;;4997658;28;20524;-68
2022/01/07 04:51:02;;;;;;;21.25;16.55;;;;;;;;;;5000728;28;20449;-70
2022/01/07 04:53:28;;;;;;;20.10;18.02;;;;;;;;;;4999637;28;20447;-68
2022/01/07 04:55:53;;;;;;;19.65;17.58;;;;;;;;;;5003154;28;20042;-67
2022/01/07 04:58:19;;;;;;;19.80;16.85;;;;;;;;;;4993338;28;20034;-68
2022/01/07 05:00:46;;;;;;;23.35;17.42;;;;;;;;;;5004311;28;20072;-70
2022/01/07 05:03:13;;;;;;;17.70;15.90;;;;;;;;;;5004775;28;20034;-69
2022/01/07 05:05:38;;;;;;;21.25;16.42;;;;;;;;;;4994875;28;20038;-69
2022/01/07 05:08:05;;;;;;;21.25;16.83;;;;;;;;;;5004678;28;20385;-69
2022/01/07 05:10:31;;;;;;;19.83;17.80;;;;;;;;;;5002069;28;20045;-69
2022/01/07 05:12:57;;;;;;;18.08;15.68;;;;;;;;;;5007805;28;20038;-68
2022/01/07 05:15:23;;;;;;;19.52;16.08;;;;;;;;;;4995887;28;20177;-68
2022/01/07 05:17:49;;;;;;;24.90;17.17;;;;;;;;;;5003541;28;20136;-69
2022/01/07 05:20:16;;;;;;;23.67;15.90;;;;;;;;;;4999314;28;20056;-68
2022/01/07 05:22:43;;;;;;;20.95;15.57;;;;;;;;;;4996333;28;20043;-69
2022/01/07 05:25:10;;;;;;;20.85;15.88;;;;;;;;;;5007427;28;20076;-67
2022/01/07 05:27:36;;;;;;;19.35;16.02;;;;;;;;;;5002383;28;20045;-69
2022/01/07 05:30:04;;;;;;;20.08;16.50;;;;;;;;;;4994322;28;20184;-69
2022/01/07 05:32:30;;;;;;;16.80;15.00;;;;;;;;;;4993953;28;20103;-69
2022/01/07 05:34:56;;;;;;;19.42;17.13;;;;;;;;;;5008320;28;20355;-69
2022/01/07 05:37:21;;;;;;;20.08;17.10;;;;;;;;;;5008347;28;20046;-69
2022/01/07 05:39:47;;;;;;;18.00;16.10;;;;;;;;;;5002074;28;20030;-69
2022/01/07 05:42:13;;;;;;;17.35;15.32;;;;;;;;;;5005139;28;20084;-68
2022/01/07 05:44:38;;;;;;;17.75;14.23;;;;;;;;;;5007731;28;20045;-68
2022/01/07 05:47:04;;;;;;;16.73;14.60;;;;;;;;;;5007500;28;20034;-68
2022/01/07 05:49:30;;;;;;;27.48;18.48;;;;;;;;;;5001079;28;20049;-69
2022/01/07 05:51:56;;;;;;;18.92;16.33;;;;;;;;;;4999419;28;20037;-68
2022/01/07 05:54:21;;;;;;;17.17;13.93;;;;;;;;;;5003905;28;20089;-69
2022/01/07 05:56:47;;;;;;;18.40;15.80;;;;;;;;;;5005445;28;20034;-69
2022/01/07 05:59:12;;;;;;;19.83;17.20;;;;;;;;;;5001196;28;20508;-68
2022/01/07 06:01:38;;;;;;;24.17;16.38;;;;;;;;;;5004117;28;21441;-68
2022/01/07 06:04:04;;;;;;;18.40;16.42;;;;;;;;;;4994754;28;20038;-69
2022/01/07 06:06:29;;;;;;;18.33;15.60;;;;;;;;;;5003005;28;20559;-69
2022/01/07 06:08:55;;;;;;;19.55;15.32;;;;;;;;;;5007565;28;20048;-68
2022/01/07 06:11:20;;;;;;;16.95;15.15;;;;;;;;;;4999308;28;20038;-69
2022/01/07 06:13:46;;;;;;;17.35;15.50;;;;;;;;;;5006704;28;20084;-68
2022/01/07 06:16:12;;;;;;;18.48;16.17;;;;;;;;;;5011964;28;20268;-67
2022/01/07 06:21:38;;;;;;;19.83;14.80;;;;;;;;;;4983362;28;20046;-69
2022/01/07 06:24:04;;;;;;;16.80;15.20;;;;;;;;;;4983504;28;20058;-69
2022/01/07 06:26:31;;;;;;;18.27;16.27;;;;;;;;;;4985465;28;20124;-70
2022/01/07 06:28:57;;;;;;;18.73;15.98;;;;;;;;;;4983167;28;20760;-67
2022/01/07 06:31:24;;;;;;;16.73;15.02;;;;;;;;;;4992570;28;20037;-68
2022/01/07 06:33:49;;;;;;;16.48;14.77;;;;;;;;;;4988810;28;20042;-68
2022/01/07 06:36:15;;;;;;;16.65;15.07;;;;;;;;;;4968057;28;20061;-69
2022/01/07 06:38:40;;;;;;;16.10;14.48;;;;;;;;;;4993925;28;20528;-69
2022/01/07 06:41:06;;;;;;;15.65;14.23;;;;;;;;;;4988503;28;20129;-69
2022/01/07 06:43:32;;;;;;;16.25;14.63;;;;;;;;;;4985576;28;20074;-69
2022/01/07 06:45:57;;;;;;;15.45;14.05;;;;;;;;;;4984681;28;20128;-69
2022/01/07 06:48:23;;;;;;;16.17;14.57;;;;;;;;;;4993624;28;20045;-69
2022/01/07 06:50:48;;;;;;;84.80;44.28;;;;;;;;;;4983793;28;20045;-69
2022/01/07 06:53:14;;;;;;;35.35;23.52;;;;;;;;;;4985058;28;20042;-69
2022/01/07 06:55:40;;;;;;;44.13;30.20;;;;;;;;;;4990488;28;20054;-69
2022/01/07 06:58:05;;;;;;;17.42;14.93;;;;;;;;;;5004329;28;20037;-68
2022/01/07 07:00:31;;;;;;;25.42;20.75;;;;;;;;;;5011004;28;20041;-69
2022/01/07 07:02:57;;;;;;;17.58;14.77;;;;;;;;;;5002459;28;20038;-69
2022/01/07 07:05:24;;;;;;;14.35;13.15;;;;;;;;;;4997208;28;20114;-69
2022/01/07 07:07:50;;;;;;;16.15;14.65;;;;;;;;;;5010651;28;20103;-69
2022/01/07 07:10:16;;;;;;;16.42;14.63;;;;;;;;;;5003730;28;20038;-69
2022/01/07 07:12:42;;;;;;;35.72;25.50;;;;;;;;;;4995317;28;20092;-69
2022/01/07 07:15:08;;;;;;;17.08;15.02;;;;;;;;;;5008273;28;20030;-68
2022/01/07 07:17:34;;;;;;;16.70;14.32;;;;;;;;;;5010548;28;20050;-67
2022/01/07 07:20:00;;;;;;;18.13;15.30;;;;;;;;;;5005038;28;20030;-67
2022/01/07 07:22:26;;;;;;;22.90;15.32;;;;;;;;;;4993282;28;20044;-68
2022/01/07 07:24:52;;;;;;;16.75;15.02;;;;;;;;;;5009714;28;20050;-68
2022/01/07 07:27:17;;;;;;;22.27;15.35;;;;;;;;;;5010556;28;20061;-69
2022/01/07 07:29:43;;;;;;;18.40;15.70;;;;;;;;;;5006889;28;20089;-69
2022/01/07 07:32:10;;;;;;;19.60;13.93;;;;;;;;;;5005588;28;20548;-69
2022/01/07 07:37:05;;;;;;;17.50;14.68;;;;;;;;;;5009426;28;20320;-69
2022/01/07 07:39:31;;;;;;;15.75;13.95;;;;;;;;;;4998234;28;21447;-69
2022/01/07 07:41:57;;;;;;;14.65;12.90;;;;;;;;;;5004884;28;20120;-70
2022/01/07 07:44:27;;;;;;;14.13;12.82;;;;;;;;;;5009026;28;20397;-69
2022/01/07 07:46:53;;;;;;;16.48;14.38;;;;;;;;;;5006343;28;20121;-69
2022/01/07 07:49:19;;;;;;;22.20;18.02;;;;;;;;;;5000772;28;20017;-69
2022/01/07 07:51:46;;;;;;;25.83;19.70;;;;;;;;;;4996441;28;20042;-68
2022/01/07 07:54:12;;;;;;;18.15;16.23;;;;;;;;;;5007767;28;20523;-69
2022/01/07 07:56:38;;;;;;;16.67;14.95;;;;;;;;;;5000257;28;20046;-69
2022/01/07 07:59:04;;;;;;;17.67;14.00;;;;;;;;;;4999345;28;20109;-69
2022/01/07 08:01:29;;;;;;;15.93;14.32;;;;;;;;;;5009674;28;20100;-69
2022/01/07 08:03:55;;;;;;;15.93;14.30;;;;;;;;;;5009896;28;20041;-69
2022/01/07 08:06:21;;;;;;;16.45;14.75;;;;;;;;;;4998530;28;20030;-69
2022/01/07 08:08:47;;;;;;;15.50;14.00;;;;;;;;;;5000215;28;20465;-69
2022/01/07 08:11:13;;;;;;;17.75;15.13;;;;;;;;;;5009459;28;20038;-70
2022/01/07 08:16:24;;;;;;;16.92;15.23;;;;;;;;;;4997122;28;20520;-70
2022/01/07 08:18:54;;;;;;;15.20;13.82;;;;;;;;;;5010308;28;20038;-69
2022/01/07 08:21:23;;;;;;;17.15;13.77;;;;;;;;;;5002390;28;20133;-68
2022/01/07 08:23:49;;;;;;;18.92;14.80;;;;;;;;;;5001688;28;20117;-68
2022/01/07 08:26:16;;;;;;;17.05;13.80;;;;;;;;;;5009580;28;20117;-68
2022/01/07 08:28:47;;;;;;;27.40;18.48;;;;;;;;;;5009510;28;20038;-68
2022/01/07 08:31:26;;;;;;;29.17;19.27;;;;;;;;;;5003297;28;20044;-68
2022/01/07 08:36:36;;;;;;;16.00;14.50;;;;;;;;;;5008637;28;20065;-69
2022/01/07 08:39:06;;;;;;;17.55;15.05;;;;;;;;;;5001078;28;20060;-69
2022/01/07 08:41:32;;;;;;;14.40;13.05;;;;;;;;;;5030890;23;20052;-70
2022/01/07 08:43:58;;;;;;;17.60;15.20;;;;;;;;;;5008742;28;20065;-69
2022/01/07 08:46:24;;;;;;;16.83;15.15;;;;;;;;;;5026836;28;20124;-70
2022/01/07 08:48:50;;;;;;;17.58;15.20;;;;;;;;;;5028454;28;20261;-69
2022/01/07 08:51:16;;;;;;;15.05;13.70;;;;;;;;;;5027081;28;20029;-69
2022/01/07 08:53:41;;;;;;;15.43;13.98;;;;;;;;;;5026483;28;20029;-69
2022/01/07 08:56:07;;;;;;;20.38;14.25;;;;;;;;;;5026942;28;20037;-69
2022/01/07 08:58:34;;;;;;;16.17;14.48;;;;;;;;;;5035314;28;20041;-70
2022/01/07 09:00:59;;;;;;;17.88;15.68;;;;;;;;;;5055718;28;20408;-69
2022/01/07 09:03:25;;;;;;;17.83;15.88;;;;;;;;;;5025285;28;20030;-70
2022/01/07 09:05:51;;;;;;;24.13;17.75;;;;;;;;;;5027859;28;20033;-70
2022/01/07 09:08:17;;;;;;;17.55;15.73;;;;;;;;;;5043694;28;20108;-70
2022/01/07 09:10:43;;;;;;;19.50;16.20;;;;;;;;;;5027354;28;20033;-72
2022/01/07 09:13:10;;;;;;;21.17;16.15;;;;;;;;;;5027804;28;20115;-70
2022/01/07 09:15:37;;;;;;;16.45;14.52;;;;;;;;;;5027108;28;20037;-70
2022/01/07 09:18:10;;;;;;;18.92;16.08;;;;;;;;;;5014395;28;20049;-70
2022/01/07 09:20:37;;;;;;;17.35;15.48;;;;;;;;;;5022484;28;20500;-70
2022/01/07 09:23:03;;;;;;;20.33;17.00;;;;;;;;;;5027161;28;20094;-70
2022/01/07 09:25:29;;;;;;;17.73;16.00;;;;;;;;;;5028504;28;20056;-70
2022/01/07 09:27:54;;;;;;;20.17;15.15;;;;;;;;;;5023505;28;20404;-70
2022/01/07 09:30:20;;;;;;;17.33;15.45;;;;;;;;;;5028053;28;20044;-70
2022/01/07 09:32:46;;;;;;;14.00;12.63;;;;;;;;;;5028523;28;20485;-70
2022/01/07 09:35:11;;;;;;;15.55;14.15;;;;;;;;;;5019131;28;20048;-70
2022/01/07 09:37:37;;;;;;;16.05;14.27;;;;;;;;;;5023817;28;20577;-70
2022/01/07 09:40:04;;;;;;;19.00;15.50;;;;;;;;;;5024815;28;20042;-70
2022/01/07 09:42:29;;;;;;;17.73;15.05;;;;;;;;;;5014859;28;20393;-70
2022/01/07 09:44:56;;;;;;;16.08;14.48;;;;;;;;;;5018814;28;20033;-70
2022/01/07 09:47:21;;;;;;;16.17;14.48;;;;;;;;;;5024583;28;20111;-70
2022/01/07 09:49:47;;;;;;;24.13;18.40;;;;;;;;;;5025587;28;20509;-70
2022/01/07 09:52:12;;;;;;;17.58;15.57;;;;;;;;;;5022769;28;20026;-70
2022/01/07 09:54:39;;;;;;;20.58;15.07;;;;;;;;;;5025016;28;20117;-70
2022/01/07 09:57:07;;;;;;;22.33;17.23;;;;;;;;;;5041123;28;20041;-70
2022/01/07 09:59:36;;;;;;;21.38;17.17;;;;;;;;;;5020293;28;20033;-70
2022/01/07 10:02:05;;;;;;;20.60;17.05;;;;;;;;;;5024610;28;20512;-70
2022/01/07 10:04:41;;;;;;;18.40;14.93;;;;;;;;;;5024585;28;20393;-70
2022/01/07 10:07:22;;;;;;;16.83;15.13;;;;;;;;;;5025496;28;20064;-70
2022/01/07 10:10:08;;;;;;;16.63;15.02;;;;;;;;;;5025904;28;20034;-70
2022/01/07 10:13:03;;;;;;;19.88;17.75;;;;;;;;;;5024974;28;20041;-70
2022/01/07 10:15:31;;;;;;;24.05;15.52;;;;;;;;;;5021955;28;20056;-70
2022/01/07 10:18:09;;;;;;;18.42;15.40;;;;;;;;;;5025452;28;20041;-70
2022/01/07 10:20:37;;;;;;;19.55;16.00;;;;;;;;;;5021807;28;20128;-70
2022/01/07 10:23:05;;;;;;;19.95;15.88;;;;;;;;;;5005844;28;20037;-70
2022/01/07 10:25:39;;;;;;;18.83;16.70;;;;;;;;;;5024922;28;20041;-70
2022/01/07 10:28:11;;;;;;;20.30;17.23;;;;;;;;;;5024214;28;20065;-70
2022/01/07 10:30:40;;;;;;;20.77;17.67;;;;;;;;;;5024406;28;20033;-70
2022/01/07 10:33:25;;;;;;;21.67;18.08;;;;;;;;;;5027093;28;20045;-70
2022/01/07 10:35:54;;;;;;;21.55;17.10;;;;;;;;;;5028693;28;20537;-70
2022/01/07 10:38:26;;;;;;;22.90;14.75;;;;;;;;;;5029032;28;20049;-70
2022/01/07 10:40:54;;;;;;;16.83;15.05;;;;;;;;;;5028276;28;20437;-70
2022/01/07 10:43:32;;;;;;;15.65;14.15;;;;;;;;;;5026410;28;20477;-70
2022/01/07 10:46:19;;;;;;;17.17;15.40;;;;;;;;;;5022093;28;20404;-70
2022/01/07 10:48:47;;;;;;;14.55;13.20;;;;;;;;;;5025906;28;20044;-70
2022/01/07 10:51:15;;;;;;;17.02;14.95;;;;;;;;;;5011046;28;20576;-69
2022/01/07 10:53:56;;;;;;;14.70;13.25;;;;;;;;;;5027712;28;20045;-70
2022/01/07 10:56:32;;;;;;;14.00;12.68;;;;;;;;;;5026907;28;20179;-69
2022/01/07 10:59:04;;;;;;;17.42;14.32;;;;;;;;;;5030314;28;20048;-70
2022/01/07 11:01:38;;;;;;;20.58;15.60;;;;;;;;;;5030090;28;20045;-70
2022/01/07 11:04:07;;;;;;;19.08;16.58;;;;;;;;;;5028303;28;20050;-70
2022/01/07 11:06:34;;;;;;;18.73;15.88;;;;;;;;;;5029103;28;20135;-70
2022/01/07 11:09:04;;;;;;;18.98;15.55;;;;;;;;;;5030095;28;20100;-70
2022/01/07 11:11:30;;;;;;;19.33;15.32;;;;;;;;;;5027901;28;20041;-70
2022/01/07 11:14:07;;;;;;;21.45;16.45;;;;;;;;;;5025480;28;20038;-70
2022/01/07 11:16:35;;;;;;;17.88;15.95;;;;;;;;;;5012046;28;20037;-70
2022/01/07 11:19:02;;;;;;;22.52;16.63;;;;;;;;;;5010860;28;20030;-70
2022/01/07 11:21:27;;;;;;;22.45;16.17;;;;;;;;;;5026928;28;20033;-70
2022/01/07 11:23:53;;;;;;;20.05;16.17;;;;;;;;;;5029135;28;20033;-70
2022/01/07 11:26:19;;;;;;;16.45;14.75;;;;;;;;;;5028513;28;20048;-70
2022/01/07 11:29:03;;;;;;;19.63;16.15;;;;;;;;;;5028629;28;20492;-70
2022/01/07 11:31:29;;;;;;;19.80;16.08;;;;;;;;;;5028924;28;20175;-70
2022/01/07 11:34:22;;;;;;;14.85;13.23;;;;;;;;;;5028432;28;20128;-70
2022/01/07 11:36:48;;;;;;;16.58;14.80;;;;;;;;;;5042294;28;20034;-70
2022/01/07 11:39:13;;;;;;;22.40;17.02;;;;;;;;;;5019402;28;20048;-70
2022/01/07 11:41:47;;;;;;;21.17;14.95;;;;;;;;;;5025881;28;20227;-70
2022/01/07 11:44:20;;;;;;;21.58;15.57;;;;;;;;;;5025096;28;20056;-70
2022/01/07 11:46:46;;;;;;;24.40;16.60;;;;;;;;;;5026672;28;20052;-70
2022/01/07 11:49:31;;;;;;;15.13;13.63;;;;;;;;;;5019218;28;20033;-70
2022/01/07 11:51:56;;;;;;;17.02;14.48;;;;;;;;;;5018531;28;20159;-70
2022/01/07 11:54:22;;;;;;;17.25;14.55;;;;;;;;;;5028421;28;20120;-70
2022/01/07 11:56:49;;;;;;;20.85;16.23;;;;;;;;;;5016908;28;20037;-70
2022/01/07 11:59:17;;;;;;;16.10;14.55;;;;;;;;;;5006700;28;20054;-70
2022/01/07 12:01:43;;;;;;;18.93;14.63;;;;;;;;;;5022539;28;20041;-70
2022/01/07 12:04:19;;;;;;;17.10;15.27;;;;;;;;;;5026721;28;20042;-70
2022/01/07 12:06:46;;;;;;;14.98;13.50;;;;;;;;;;5026096;28;20120;-70
2022/01/07 12:09:21;;;;;;;19.02;15.20;;;;;;;;;;5019446;28;20042;-70
2022/01/07 12:12:12;;;;;;;15.25;13.73;;;;;;;;;;5020187;28;20038;-70
2022/01/07 12:14:41;;;;;;;20.25;16.75;;;;;;;;;;5026571;28;20033;-70
2022/01/07 12:17:15;;;;;;;18.55;14.88;;;;;;;;;;5026139;28;20116;-69
2022/01/07 12:19:42;;;;;;;15.95;14.20;;;;;;;;;;5026988;28;20029;-70
2022/01/07 12:22:11;;;;;;;24.23;16.42;;;;;;;;;;5028502;28;20088;-70
2022/01/07 12:24:37;;;;;;;20.80;15.65;;;;;;;;;;5026303;28;20045;-71
2022/01/07 12:27:10;;;;;;;18.90;16.80;;;;;;;;;;5009703;28;20124;-69
2022/01/07 12:29:44;;;;;;;18.73;16.77;;;;;;;;;;5019035;28;20040;-70
2022/01/07 12:32:13;;;;;;;21.15;16.45;;;;;;;;;;5024530;28;20037;-69
2022/01/07 12:34:41;;;;;;;20.17;16.58;;;;;;;;;;5027201;28;20060;-70
2022/01/07 12:37:09;;;;;;;17.15;15.35;;;;;;;;;;5024051;28;20630;-70
2022/01/07 12:39:36;;;;;;;20.30;16.73;;;;;;;;;;5042148;28;20041;-70
2022/01/07 12:42:04;;;;;;;20.65;16.77;;;;;;;;;;5025434;28;20064;-68
2022/01/07 12:44:36;;;;;;;22.85;19.48;;;;;;;;;;5026619;28;20404;-69
2022/01/07 12:47:02;;;;;;;24.83;17.95;;;;;;;;;;5024625;28;20048;-69
2022/01/07 12:49:32;;;;;;;24.90;18.02;;;;;;;;;;5024717;28;20036;-69
2022/01/07 12:52:04;;;;;;;26.45;19.10;;;;;;;;;;5020203;28;20463;-69
2022/01/07 12:54:30;;;;;;;26.67;19.15;;;;;;;;;;5025796;28;20041;-69
2022/01/07 12:56:56;;;;;;;20.33;17.33;;;;;;;;;;5024892;28;20048;-68
2022/01/07 12:59:24;;;;;;;20.83;16.92;;;;;;;;;;5022577;28;20049;-68
2022/01/07 13:01:50;;;;;;;26.05;20.92;;;;;;;;;;5025850;28;20053;-68
2022/01/07 13:04:20;;;;;;;22.27;18.35;;;;;;;;;;5025781;28;20493;-68
2022/01/07 13:06:52;;;;;;;21.83;17.50;;;;;;;;;;5026489;28;20061;-68
2022/01/07 13:09:26;;;;;;;19.90;16.95;;;;;;;;;;5026111;28;20029;-68
2022/01/07 13:11:54;;;;;;;20.58;17.50;;;;;;;;;;5026124;28;20037;-67
2022/01/07 13:14:21;;;;;;;16.92;15.25;;;;;;;;;;5017812;28;20037;-67
2022/01/07 13:16:53;;;;;;;19.55;17.45;;;;;;;;;;5027732;28;20041;-67
2022/01/07 13:19:19;;;;;;;17.60;15.73;;;;;;;;;;5028308;28;20060;-69
2022/01/07 13:21:46;;;;;;;21.10;18.23;;;;;;;;;;5024119;28;20515;-67
2022/01/07 13:24:14;;;;;;;20.88;17.67;;;;;;;;;;5042050;28;20048;-67
2022/01/07 13:26:40;;;;;;;19.40;17.17;;;;;;;;;;5027652;28;20033;-66
2022/01/07 13:29:15;;;;;;;31.42;23.67;;;;;;;;;;5026464;28;20033;-67
2022/01/07 13:31:43;;;;;;;24.55;19.08;;;;;;;;;;5025240;28;20091;-66
2022/01/07 13:34:10;;;;;;;14.98;13.55;;;;;;;;;;5025925;28;20080;-67
2022/01/07 13:36:42;;;;;;;16.30;14.70;;;;;;;;;;5027730;28;20088;-66
2022/01/07 13:39:08;;;;;;;22.88;17.02;;;;;;;;;;5026271;28;20059;-66
2022/01/07 13:41:50;;;;;;;21.58;17.42;;;;;;;;;;5026712;28;20045;-66
2022/01/07 13:44:16;;;;;;;21.58;16.70;;;;;;;;;;5006861;28;20042;-66
2022/01/07 13:46:49;;;;;;;21.77;16.83;;;;;;;;;;5021192;28;20038;-68
2022/01/07 13:49:16;;;;;;;22.48;17.08;;;;;;;;;;5026691;28;20029;-67
2022/01/07 13:51:52;;;;;;;26.45;17.92;;;;;;;;;;5026862;28;20120;-67
2022/01/07 13:54:25;;;;;;;20.00;16.35;;;;;;;;;;5049867;28;20038;-67
2022/01/07 13:57:20;;;;;;;19.73;16.27;;;;;;;;;;5024639;28;20033;-67
2022/01/07 13:59:54;;;;;;;21.75;17.60;;;;;;;;;;5025183;28;20500;-67
2022/01/07 14:02:25;;;;;;;22.17;17.10;;;;;;;;;;5022390;28;20057;-67
2022/01/07 14:04:55;;;;;;;22.95;18.05;;;;;;;;;;5024541;28;20492;-67
2022/01/07 14:07:21;;;;;;;20.27;16.42;;;;;;;;;;5029314;28;20045;-67
2022/01/07 14:10:02;;;;;;;27.60;19.55;;;;;;;;;;5020106;28;20032;-66
2022/01/07 14:12:27;;;;;;;17.55;14.70;;;;;;;;;;5027160;28;20033;-67
2022/01/07 14:15:08;;;;;;;15.68;14.07;;;;;;;;;;5029171;28;20037;-67
2022/01/07 14:17:34;;;;;;;16.88;14.77;;;;;;;;;;5028237;28;20613;-68
2022/01/07 14:20:03;;;;;;;14.45;13.00;;;;;;;;;;5026876;28;20065;-68
2022/01/07 14:22:31;;;;;;;14.45;12.77;;;;;;;;;;5028505;28;20841;-68
2022/01/07 14:24:58;;;;;;;14.80;13.27;;;;;;;;;;5019578;22;20451;-68
2022/01/07 14:27:31;;;;;;;14.23;12.88;;;;;;;;;;5024653;28;20041;-67
2022/01/07 14:29:57;;;;;;;15.02;13.52;;;;;;;;;;5023941;28;20064;-67